sensor_id;sensor_type;location;lat;lon;timestamp;P1;durP1;ratioP1;P2;durP2;ratioP2
2019;SDS011;1014;51.960;8.542;2023-02-15T00:01:28;24.92;;;23.27;;
2019;SDS011;1014;51.960;8.542;2023-02-15T00:03:57;25.25;;;23.65;;
2019;SDS011;1014;51.960;8.542;2023-02-15T00:06:24;24.45;;;23.05;;
2019;SDS011;1014;51.960;8.542;2023-02-15T00:08:51;25.15;;;23.65;;
2019;SDS011;1014;51.960;8.542;2023-02-15T00:11:18;25.35;;;23.65;;
2019;SDS011;1014;51.960;8.542;2023-02-15T00:14:04;25.15;;;23.65;;
2019;SDS011;1014;51.960;8.542;2023-02-15T00:16:31;24.75;;;23.00;;
2019;SDS011;1014;51.960;8.542;2023-02-15T00:19:00;25.65;;;23.80;;
2019;SDS011;1014;51.960;8.542;2023-02-15T00:21:27;24.95;;;23.35;;
2019;SDS011;1014;51.960;8.542;2023-02-15T00:23:54;25.83;;;24.02;;
2019;SDS011;1014;51.960;8.542;2023-02-15T00:26:21;26.05;;;24.05;;
2019;SDS011;1014;51.960;8.542;2023-02-15T00:28:48;25.73;;;24.02;;
2019;SDS011;1014;51.960;8.542;2023-02-15T00:31:15;25.98;;;24.17;;
2019;SDS011;1014;51.960;8.542;2023-02-15T00:33:42;24.65;;;23.05;;
2019;SDS011;1014;51.960;8.542;2023-02-15T00:36:11;24.55;;;22.90;;
2019;SDS011;1014;51.960;8.542;2023-02-15T00:38:38;24.67;;;23.08;;
2019;SDS011;1014;51.960;8.542;2023-02-15T00:41:07;25.13;;;23.52;;
2019;SDS011;1014;51.960;8.542;2023-02-15T00:43:35;24.92;;;23.23;;
2019;SDS011;1014;51.960;8.542;2023-02-15T00:46:02;23.65;;;22.15;;
2019;SDS011;1014;51.960;8.542;2023-02-15T00:48:30;24.83;;;23.13;;
2019;SDS011;1014;51.960;8.542;2023-02-15T00:50:57;25.33;;;23.67;;
2019;SDS011;1014;51.960;8.542;2023-02-15T00:53:26;24.40;;;22.80;;
2019;SDS011;1014;51.960;8.542;2023-02-15T00:55:53;23.80;;;22.30;;
2019;SDS011;1014;51.960;8.542;2023-02-15T00:58:21;26.42;;;24.63;;
2019;SDS011;1014;51.960;8.542;2023-02-15T01:00:48;23.60;;;22.20;;
2019;SDS011;1014;51.960;8.542;2023-02-15T01:03:15;23.48;;;22.02;;
2019;SDS011;1014;51.960;8.542;2023-02-15T01:05:43;25.48;;;23.67;;
2019;SDS011;1014;51.960;8.542;2023-02-15T01:08:10;25.05;;;23.45;;
2019;SDS011;1014;51.960;8.542;2023-02-15T01:10:38;24.38;;;22.77;;
2019;SDS011;1014;51.960;8.542;2023-02-15T01:13:05;24.52;;;23.00;;
2019;SDS011;1014;51.960;8.542;2023-02-15T01:15:33;26.25;;;24.55;;
2019;SDS011;1014;51.960;8.542;2023-02-15T01:18:00;25.05;;;23.35;;
2019;SDS011;1014;51.960;8.542;2023-02-15T01:20:28;24.88;;;23.33;;
2019;SDS011;1014;51.960;8.542;2023-02-15T01:22:55;25.30;;;23.70;;
2019;SDS011;1014;51.960;8.542;2023-02-15T01:25:23;25.85;;;23.80;;
2019;SDS011;1014;51.960;8.542;2023-02-15T01:27:52;24.67;;;23.13;;
2019;SDS011;1014;51.960;8.542;2023-02-15T01:30:19;24.48;;;22.88;;
2019;SDS011;1014;51.960;8.542;2023-02-15T01:32:46;25.10;;;23.60;;
2019;SDS011;1014;51.960;8.542;2023-02-15T01:35:13;24.60;;;23.00;;
2019;SDS011;1014;51.960;8.542;2023-02-15T01:37:39;24.13;;;22.63;;
2019;SDS011;1014;51.960;8.542;2023-02-15T01:40:08;24.90;;;23.25;;
2019;SDS011;1014;51.960;8.542;2023-02-15T01:42:35;25.13;;;23.42;;
2019;SDS011;1014;51.960;8.542;2023-02-15T01:45:04;25.30;;;23.48;;
2019;SDS011;1014;51.960;8.542;2023-02-15T01:47:33;24.70;;;23.20;;
2019;SDS011;1014;51.960;8.542;2023-02-15T01:50:05;23.77;;;22.10;;
2019;SDS011;1014;51.960;8.542;2023-02-15T01:52:34;24.77;;;23.17;;
2019;SDS011;1014;51.960;8.542;2023-02-15T01:55:03;24.95;;;23.25;;
2019;SDS011;1014;51.960;8.542;2023-02-15T01:57:31;24.30;;;22.80;;
2019;SDS011;1014;51.960;8.542;2023-02-15T01:59:59;25.77;;;23.83;;
2019;SDS011;1014;51.960;8.542;2023-02-15T02:02:28;24.27;;;22.63;;
2019;SDS011;1014;51.960;8.542;2023-02-15T02:04:56;25.30;;;23.60;;
2019;SDS011;1014;51.960;8.542;2023-02-15T02:07:26;24.50;;;22.85;;
2019;SDS011;1014;51.960;8.542;2023-02-15T02:09:53;24.10;;;22.50;;
2019;SDS011;1014;51.960;8.542;2023-02-15T02:12:20;25.08;;;23.40;;
2019;SDS011;1014;51.960;8.542;2023-02-15T02:14:48;25.42;;;23.55;;
2019;SDS011;1014;51.960;8.542;2023-02-15T02:17:16;24.88;;;23.33;;
2019;SDS011;1014;51.960;8.542;2023-02-15T02:22:44;25.05;;;23.20;;
2019;SDS011;1014;51.960;8.542;2023-02-15T02:25:34;24.23;;;22.73;;
2019;SDS011;1014;51.960;8.542;2023-02-15T02:28:09;24.70;;;23.10;;
2019;SDS011;1014;51.960;8.542;2023-02-15T02:30:48;24.40;;;22.85;;
2019;SDS011;1014;51.960;8.542;2023-02-15T02:36:05;23.80;;;22.30;;
2019;SDS011;1014;51.960;8.542;2023-02-15T02:38:35;24.40;;;22.90;;
2019;SDS011;1014;51.960;8.542;2023-02-15T02:41:07;23.20;;;21.60;;
2019;SDS011;1014;51.960;8.542;2023-02-15T02:43:35;23.38;;;21.88;;
2019;SDS011;1014;51.960;8.542;2023-02-15T02:46:06;23.40;;;21.60;;
2019;SDS011;1014;51.960;8.542;2023-02-15T02:48:37;23.80;;;22.40;;
2019;SDS011;1014;51.960;8.542;2023-02-15T02:51:06;24.52;;;23.02;;
2019;SDS011;1014;51.960;8.542;2023-02-15T02:53:33;24.27;;;22.73;;
2019;SDS011;1014;51.960;8.542;2023-02-15T02:56:02;25.08;;;23.27;;
2019;SDS011;1014;51.960;8.542;2023-02-15T02:58:34;24.77;;;23.08;;
2019;SDS011;1014;51.960;8.542;2023-02-15T03:01:05;23.52;;;22.08;;
2019;SDS011;1014;51.960;8.542;2023-02-15T03:03:34;24.35;;;22.77;;
2019;SDS011;1014;51.960;8.542;2023-02-15T03:06:03;24.65;;;23.08;;
2019;SDS011;1014;51.960;8.542;2023-02-15T03:08:34;24.63;;;22.90;;
2019;SDS011;1014;51.960;8.542;2023-02-15T03:11:02;23.65;;;22.20;;
2019;SDS011;1014;51.960;8.542;2023-02-15T03:13:29;24.45;;;22.95;;
2019;SDS011;1014;51.960;8.542;2023-02-15T03:15:57;23.83;;;22.27;;
2019;SDS011;1014;51.960;8.542;2023-02-15T03:18:43;24.88;;;23.35;;
2019;SDS011;1014;51.960;8.542;2023-02-15T03:21:17;23.50;;;22.10;;
2019;SDS011;1014;51.960;8.542;2023-02-15T03:23:49;23.73;;;22.23;;
2019;SDS011;1014;51.960;8.542;2023-02-15T03:26:16;23.88;;;22.38;;
2019;SDS011;1014;51.960;8.542;2023-02-15T03:28:45;23.98;;;22.38;;
2019;SDS011;1014;51.960;8.542;2023-02-15T03:31:13;25.25;;;23.65;;
2019;SDS011;1014;51.960;8.542;2023-02-15T03:33:42;22.73;;;21.42;;
2019;SDS011;1014;51.960;8.542;2023-02-15T03:36:11;24.00;;;22.60;;
2019;SDS011;1014;51.960;8.542;2023-02-15T03:38:44;23.95;;;22.55;;
2019;SDS011;1014;51.960;8.542;2023-02-15T03:41:15;23.55;;;22.10;;
2019;SDS011;1014;51.960;8.542;2023-02-15T03:43:45;24.02;;;22.50;;
2019;SDS011;1014;51.960;8.542;2023-02-15T03:46:16;27.60;;;25.60;;
2019;SDS011;1014;51.960;8.542;2023-02-15T03:48:45;24.05;;;22.52;;
2019;SDS011;1014;51.960;8.542;2023-02-15T03:51:15;25.42;;;23.73;;
2019;SDS011;1014;51.960;8.542;2023-02-15T03:54:03;24.30;;;22.52;;
2019;SDS011;1014;51.960;8.542;2023-02-15T03:56:32;24.40;;;22.85;;
2019;SDS011;1014;51.960;8.542;2023-02-15T03:59:00;24.52;;;22.88;;
2019;SDS011;1014;51.960;8.542;2023-02-15T04:01:46;23.40;;;21.90;;
2019;SDS011;1014;51.960;8.542;2023-02-15T04:04:24;24.63;;;23.05;;
2019;SDS011;1014;51.960;8.542;2023-02-15T04:06:51;24.00;;;22.17;;
2019;SDS011;1014;51.960;8.542;2023-02-15T04:09:18;22.92;;;21.52;;
2019;SDS011;1014;51.960;8.542;2023-02-15T04:12:04;23.75;;;22.35;;
2019;SDS011;1014;51.960;8.542;2023-02-15T04:14:32;24.70;;;23.00;;
2019;SDS011;1014;51.960;8.542;2023-02-15T04:17:16;24.48;;;22.88;;
2019;SDS011;1014;51.960;8.542;2023-02-15T04:19:43;24.10;;;22.63;;
2019;SDS011;1014;51.960;8.542;2023-02-15T04:22:28;24.27;;;22.77;;
2019;SDS011;1014;51.960;8.542;2023-02-15T04:25:13;23.52;;;21.92;;
2019;SDS011;1014;51.960;8.542;2023-02-15T04:27:43;24.48;;;22.92;;
2019;SDS011;1014;51.960;8.542;2023-02-15T04:30:11;25.15;;;23.58;;
2019;SDS011;1014;51.960;8.542;2023-02-15T04:32:38;24.05;;;22.55;;
2019;SDS011;1014;51.960;8.542;2023-02-15T04:35:06;23.58;;;22.08;;
2019;SDS011;1014;51.960;8.542;2023-02-15T04:37:34;24.70;;;23.02;;
2019;SDS011;1014;51.960;8.542;2023-02-15T04:40:02;24.63;;;23.08;;
2019;SDS011;1014;51.960;8.542;2023-02-15T04:42:29;24.08;;;22.52;;
2019;SDS011;1014;51.960;8.542;2023-02-15T04:44:57;25.35;;;23.67;;
2019;SDS011;1014;51.960;8.542;2023-02-15T04:47:24;24.35;;;22.85;;
2019;SDS011;1014;51.960;8.542;2023-02-15T04:49:51;24.33;;;22.63;;
2019;SDS011;1014;51.960;8.542;2023-02-15T04:52:18;25.40;;;23.70;;
2019;SDS011;1014;51.960;8.542;2023-02-15T04:54:47;24.98;;;23.35;;
2019;SDS011;1014;51.960;8.542;2023-02-15T04:57:14;25.67;;;23.88;;
2019;SDS011;1014;51.960;8.542;2023-02-15T04:59:41;23.23;;;21.83;;
2019;SDS011;1014;51.960;8.542;2023-02-15T05:02:09;25.30;;;23.60;;
2019;SDS011;1014;51.960;8.542;2023-02-15T05:04:36;24.25;;;22.65;;
2019;SDS011;1014;51.960;8.542;2023-02-15T05:07:03;24.20;;;22.65;;
2019;SDS011;1014;51.960;8.542;2023-02-15T05:09:30;24.25;;;22.75;;
2019;SDS011;1014;51.960;8.542;2023-02-15T05:11:57;23.80;;;22.08;;
2019;SDS011;1014;51.960;8.542;2023-02-15T05:14:24;23.98;;;22.38;;
2019;SDS011;1014;51.960;8.542;2023-02-15T05:16:51;24.88;;;23.27;;
2019;SDS011;1014;51.960;8.542;2023-02-15T05:19:20;24.58;;;22.98;;
2019;SDS011;1014;51.960;8.542;2023-02-15T05:21:49;25.23;;;23.52;;
2019;SDS011;1014;51.960;8.542;2023-02-15T05:24:16;24.80;;;23.20;;
2019;SDS011;1014;51.960;8.542;2023-02-15T05:27:01;24.92;;;23.10;;
2019;SDS011;1014;51.960;8.542;2023-02-15T05:29:45;24.23;;;22.63;;
2019;SDS011;1014;51.960;8.542;2023-02-15T05:32:12;25.42;;;23.73;;
2019;SDS011;1014;51.960;8.542;2023-02-15T05:34:41;25.27;;;23.58;;
2019;SDS011;1014;51.960;8.542;2023-02-15T05:37:08;24.40;;;22.90;;
2019;SDS011;1014;51.960;8.542;2023-02-15T05:39:35;24.85;;;22.85;;
2019;SDS011;1014;51.960;8.542;2023-02-15T05:42:02;23.98;;;22.50;;
2019;SDS011;1014;51.960;8.542;2023-02-15T05:44:29;25.17;;;23.48;;
2019;SDS011;1014;51.960;8.542;2023-02-15T05:46:56;24.30;;;22.77;;
2019;SDS011;1014;51.960;8.542;2023-02-15T05:49:23;25.65;;;23.95;;
2019;SDS011;1014;51.960;8.542;2023-02-15T05:51:51;25.75;;;24.15;;
2019;SDS011;1014;51.960;8.542;2023-02-15T05:54:18;24.75;;;23.08;;
2019;SDS011;1014;51.960;8.542;2023-02-15T05:56:45;26.17;;;24.10;;
2019;SDS011;1014;51.960;8.542;2023-02-15T05:59:12;24.30;;;22.70;;
2019;SDS011;1014;51.960;8.542;2023-02-15T06:01:39;24.77;;;23.17;;
2019;SDS011;1014;51.960;8.542;2023-02-15T06:04:06;25.80;;;23.80;;
2019;SDS011;1014;51.960;8.542;2023-02-15T06:06:34;25.83;;;23.98;;
2019;SDS011;1014;51.960;8.542;2023-02-15T06:09:02;25.25;;;23.55;;
2019;SDS011;1014;51.960;8.542;2023-02-15T06:11:29;25.40;;;23.55;;
2019;SDS011;1014;51.960;8.542;2023-02-15T06:13:56;25.30;;;23.35;;
2019;SDS011;1014;51.960;8.542;2023-02-15T06:16:23;24.55;;;22.83;;
2019;SDS011;1014;51.960;8.542;2023-02-15T06:18:50;24.52;;;22.90;;
2019;SDS011;1014;51.960;8.542;2023-02-15T06:21:17;25.70;;;23.83;;
2019;SDS011;1014;51.960;8.542;2023-02-15T06:23:44;24.35;;;22.75;;
2019;SDS011;1014;51.960;8.542;2023-02-15T06:26:13;25.27;;;23.52;;
2019;SDS011;1014;51.960;8.542;2023-02-15T06:28:40;24.40;;;22.50;;
2019;SDS011;1014;51.960;8.542;2023-02-15T06:31:07;24.83;;;23.02;;
2019;SDS011;1014;51.960;8.542;2023-02-15T06:33:34;25.50;;;23.50;;
2019;SDS011;1014;51.960;8.542;2023-02-15T06:36:01;25.02;;;23.27;;
2019;SDS011;1014;51.960;8.542;2023-02-15T06:38:28;25.73;;;24.02;;
2019;SDS011;1014;51.960;8.542;2023-02-15T06:40:55;26.08;;;24.27;;
2019;SDS011;1014;51.960;8.542;2023-02-15T06:43:24;25.73;;;23.92;;
2019;SDS011;1014;51.960;8.542;2023-02-15T06:45:51;25.40;;;23.65;;
2019;SDS011;1014;51.960;8.542;2023-02-15T06:48:18;26.33;;;24.63;;
2019;SDS011;1014;51.960;8.542;2023-02-15T06:50:45;26.08;;;24.17;;
2019;SDS011;1014;51.960;8.542;2023-02-15T06:53:12;26.20;;;24.58;;
2019;SDS011;1014;51.960;8.542;2023-02-15T06:55:39;25.88;;;24.08;;
2019;SDS011;1014;51.960;8.542;2023-02-15T06:58:06;25.38;;;23.70;;
2019;SDS011;1014;51.960;8.542;2023-02-15T07:00:34;25.92;;;24.27;;
2019;SDS011;1014;51.960;8.542;2023-02-15T07:03:01;25.05;;;23.10;;
2019;SDS011;1014;51.960;8.542;2023-02-15T07:05:28;26.10;;;24.23;;
2019;SDS011;1014;51.960;8.542;2023-02-15T07:07:56;25.10;;;23.30;;
2019;SDS011;1014;51.960;8.542;2023-02-15T07:10:23;27.65;;;25.70;;
2019;SDS011;1014;51.960;8.542;2023-02-15T07:12:50;27.02;;;24.77;;
2019;SDS011;1014;51.960;8.542;2023-02-15T07:15:17;26.45;;;24.67;;
2019;SDS011;1014;51.960;8.542;2023-02-15T07:17:47;25.58;;;23.83;;
2019;SDS011;1014;51.960;8.542;2023-02-15T07:20:14;25.80;;;23.90;;
2019;SDS011;1014;51.960;8.542;2023-02-15T07:22:41;26.35;;;24.27;;
2019;SDS011;1014;51.960;8.542;2023-02-15T07:25:09;25.58;;;23.83;;
2019;SDS011;1014;51.960;8.542;2023-02-15T07:27:36;26.40;;;24.60;;
2019;SDS011;1014;51.960;8.542;2023-02-15T07:30:03;26.77;;;24.45;;
2019;SDS011;1014;51.960;8.542;2023-02-15T07:32:31;25.20;;;23.45;;
2019;SDS011;1014;51.960;8.542;2023-02-15T07:34:59;27.83;;;25.73;;
2019;SDS011;1014;51.960;8.542;2023-02-15T07:37:27;27.67;;;25.48;;
2019;SDS011;1014;51.960;8.542;2023-02-15T07:39:54;26.92;;;24.90;;
2019;SDS011;1014;51.960;8.542;2023-02-15T07:42:21;27.00;;;24.92;;
2019;SDS011;1014;51.960;8.542;2023-02-15T07:44:48;28.65;;;26.50;;
2019;SDS011;1014;51.960;8.542;2023-02-15T07:47:15;27.42;;;25.42;;
2019;SDS011;1014;51.960;8.542;2023-02-15T07:49:42;26.90;;;24.90;;
2019;SDS011;1014;51.960;8.542;2023-02-15T07:52:10;27.08;;;25.08;;
2019;SDS011;1014;51.960;8.542;2023-02-15T07:54:37;26.23;;;24.33;;
2019;SDS011;1014;51.960;8.542;2023-02-15T07:57:04;26.83;;;24.85;;
2019;SDS011;1014;51.960;8.542;2023-02-15T07:59:32;27.73;;;25.77;;
2019;SDS011;1014;51.960;8.542;2023-02-15T08:01:59;26.80;;;24.80;;
2019;SDS011;1014;51.960;8.542;2023-02-15T08:04:26;28.25;;;26.17;;
2019;SDS011;1014;51.960;8.542;2023-02-15T08:06:53;27.80;;;25.92;;
2019;SDS011;1014;51.960;8.542;2023-02-15T08:09:21;27.17;;;25.00;;
2019;SDS011;1014;51.960;8.542;2023-02-15T08:11:48;27.90;;;25.80;;
2019;SDS011;1014;51.960;8.542;2023-02-15T08:14:16;27.88;;;25.70;;
2019;SDS011;1014;51.960;8.542;2023-02-15T08:16:44;29.38;;;27.25;;
2019;SDS011;1014;51.960;8.542;2023-02-15T08:19:12;28.77;;;26.77;;
2019;SDS011;1014;51.960;8.542;2023-02-15T08:21:40;27.85;;;26.05;;
2019;SDS011;1014;51.960;8.542;2023-02-15T08:24:08;27.83;;;25.83;;
2019;SDS011;1014;51.960;8.542;2023-02-15T08:26:36;27.42;;;25.60;;
2019;SDS011;1014;51.960;8.542;2023-02-15T08:29:04;28.30;;;26.40;;
2019;SDS011;1014;51.960;8.542;2023-02-15T08:31:32;29.02;;;27.02;;
2019;SDS011;1014;51.960;8.542;2023-02-15T08:33:59;28.88;;;26.88;;
2019;SDS011;1014;51.960;8.542;2023-02-15T08:36:26;28.80;;;26.58;;
2019;SDS011;1014;51.960;8.542;2023-02-15T08:38:54;27.88;;;25.95;;
2019;SDS011;1014;51.960;8.542;2023-02-15T08:41:21;27.90;;;25.83;;
2019;SDS011;1014;51.960;8.542;2023-02-15T08:43:51;28.77;;;26.58;;
2019;SDS011;1014;51.960;8.542;2023-02-15T08:46:18;29.45;;;27.15;;
2019;SDS011;1014;51.960;8.542;2023-02-15T08:48:45;27.80;;;25.80;;
2019;SDS011;1014;51.960;8.542;2023-02-15T08:51:13;30.20;;;27.90;;
2019;SDS011;1014;51.960;8.542;2023-02-15T08:53:41;29.42;;;27.13;;
2019;SDS011;1014;51.960;8.542;2023-02-15T08:56:09;29.60;;;27.30;;
2019;SDS011;1014;51.960;8.542;2023-02-15T08:58:36;29.13;;;26.83;;
2019;SDS011;1014;51.960;8.542;2023-02-15T09:01:09;30.10;;;27.83;;
2019;SDS011;1014;51.960;8.542;2023-02-15T09:03:36;29.05;;;26.95;;
2019;SDS011;1014;51.960;8.542;2023-02-15T09:06:04;30.23;;;27.88;;
2019;SDS011;1014;51.960;8.542;2023-02-15T09:08:31;28.85;;;26.45;;
2019;SDS011;1014;51.960;8.542;2023-02-15T09:11:05;30.88;;;28.45;;
2019;SDS011;1014;51.960;8.542;2023-02-15T09:13:32;29.15;;;26.77;;
2019;SDS011;1014;51.960;8.542;2023-02-15T09:15:59;29.48;;;27.17;;
2019;SDS011;1014;51.960;8.542;2023-02-15T09:18:28;28.75;;;26.40;;
2019;SDS011;1014;51.960;8.542;2023-02-15T09:20:55;29.92;;;27.35;;
2019;SDS011;1014;51.960;8.542;2023-02-15T09:23:22;28.15;;;25.98;;
2019;SDS011;1014;51.960;8.542;2023-02-15T09:25:49;29.83;;;26.92;;
2019;SDS011;1014;51.960;8.542;2023-02-15T09:28:17;29.85;;;27.40;;
2019;SDS011;1014;51.960;8.542;2023-02-15T09:30:44;30.15;;;27.75;;
2019;SDS011;1014;51.960;8.542;2023-02-15T09:33:11;29.02;;;26.42;;
2019;SDS011;1014;51.960;8.542;2023-02-15T09:35:39;28.85;;;26.45;;
2019;SDS011;1014;51.960;8.542;2023-02-15T09:38:06;28.73;;;26.50;;
2019;SDS011;1014;51.960;8.542;2023-02-15T09:40:38;29.10;;;26.73;;
2019;SDS011;1014;51.960;8.542;2023-02-15T09:43:15;25.75;;;23.83;;
2019;SDS011;1014;51.960;8.542;2023-02-15T09:45:52;29.35;;;27.00;;
2019;SDS011;1014;51.960;8.542;2023-02-15T09:48:26;27.88;;;25.85;;
2019;SDS011;1014;51.960;8.542;2023-02-15T09:51:00;28.23;;;26.10;;
2019;SDS011;1014;51.960;8.542;2023-02-15T09:53:35;29.83;;;27.33;;
2019;SDS011;1014;51.960;8.542;2023-02-15T09:56:06;30.88;;;28.55;;
2019;SDS011;1014;51.960;8.542;2023-02-15T09:58:39;28.02;;;26.02;;
2019;SDS011;1014;51.960;8.542;2023-02-15T10:01:10;29.92;;;27.63;;
2019;SDS011;1014;51.960;8.542;2023-02-15T10:03:42;28.58;;;26.35;;
2019;SDS011;1014;51.960;8.542;2023-02-15T10:09:02;27.95;;;25.92;;
2019;SDS011;1014;51.960;8.542;2023-02-15T10:11:32;28.33;;;26.05;;
2019;SDS011;1014;51.960;8.542;2023-02-15T10:14:30;29.50;;;27.10;;
2019;SDS011;1014;51.960;8.542;2023-02-15T10:17:04;28.83;;;26.63;;
2019;SDS011;1014;51.960;8.542;2023-02-15T10:19:35;29.70;;;27.17;;
2019;SDS011;1014;51.960;8.542;2023-02-15T10:22:09;29.63;;;27.35;;
2019;SDS011;1014;51.960;8.542;2023-02-15T10:24:43;29.85;;;27.35;;
2019;SDS011;1014;51.960;8.542;2023-02-15T10:27:13;29.63;;;27.30;;
2019;SDS011;1014;51.960;8.542;2023-02-15T10:29:43;30.63;;;28.17;;
2019;SDS011;1014;51.960;8.542;2023-02-15T10:32:16;28.33;;;26.13;;
2019;SDS011;1014;51.960;8.542;2023-02-15T10:34:50;29.30;;;26.77;;
2019;SDS011;1014;51.960;8.542;2023-02-15T10:37:37;28.13;;;25.83;;
2019;SDS011;1014;51.960;8.542;2023-02-15T10:40:12;29.30;;;27.05;;
2019;SDS011;1014;51.960;8.542;2023-02-15T10:42:45;29.73;;;27.30;;
2019;SDS011;1014;51.960;8.542;2023-02-15T10:45:19;29.42;;;26.92;;
2019;SDS011;1014;51.960;8.542;2023-02-15T10:47:52;32.67;;;30.08;;
2019;SDS011;1014;51.960;8.542;2023-02-15T10:53:13;31.90;;;28.65;;
2019;SDS011;1014;51.960;8.542;2023-02-15T10:55:49;31.13;;;28.43;;
2019;SDS011;1014;51.960;8.542;2023-02-15T10:58:21;31.13;;;28.63;;
2019;SDS011;1014;51.960;8.542;2023-02-15T11:00:51;33.78;;;30.67;;
2019;SDS011;1014;51.960;8.542;2023-02-15T11:03:28;32.67;;;29.67;;
2019;SDS011;1014;51.960;8.542;2023-02-15T11:06:00;33.30;;;30.33;;
2019;SDS011;1014;51.960;8.542;2023-02-15T11:08:28;31.87;;;29.00;;
2019;SDS011;1014;51.960;8.542;2023-02-15T11:10:58;32.80;;;29.90;;
2019;SDS011;1014;51.960;8.542;2023-02-15T11:13:28;31.97;;;29.30;;
2019;SDS011;1014;51.960;8.542;2023-02-15T11:15:59;33.07;;;30.17;;
2019;SDS011;1014;51.960;8.542;2023-02-15T11:18:28;32.00;;;29.40;;
2019;SDS011;1014;51.960;8.542;2023-02-15T11:20:59;35.03;;;31.63;;
2019;SDS011;1014;51.960;8.542;2023-02-15T11:23:28;33.63;;;30.63;;
2019;SDS011;1014;51.960;8.542;2023-02-15T11:25:58;34.93;;;32.03;;
2019;SDS011;1014;51.960;8.542;2023-02-15T11:28:27;34.17;;;31.00;;
2019;SDS011;1014;51.960;8.542;2023-02-15T11:30:56;32.57;;;29.73;;
2019;SDS011;1014;51.960;8.542;2023-02-15T11:33:26;33.13;;;30.07;;
2019;SDS011;1014;51.960;8.542;2023-02-15T11:35:55;35.43;;;32.07;;
2019;SDS011;1014;51.960;8.542;2023-02-15T11:38:26;33.70;;;30.77;;
2019;SDS011;1014;51.960;8.542;2023-02-15T11:40:55;35.13;;;31.90;;
2019;SDS011;1014;51.960;8.542;2023-02-15T11:43:26;33.23;;;30.60;;
2019;SDS011;1014;51.960;8.542;2023-02-15T11:45:55;34.53;;;31.27;;
2019;SDS011;1014;51.960;8.542;2023-02-15T11:48:22;35.73;;;32.83;;
2019;SDS011;1014;51.960;8.542;2023-02-15T11:50:49;36.33;;;32.90;;
2019;SDS011;1014;51.960;8.542;2023-02-15T11:53:17;37.13;;;33.13;;
2019;SDS011;1014;51.960;8.542;2023-02-15T11:55:46;35.07;;;31.90;;
2019;SDS011;1014;51.960;8.542;2023-02-15T11:58:16;35.23;;;32.00;;
2019;SDS011;1014;51.960;8.542;2023-02-15T12:00:50;36.37;;;32.67;;
2019;SDS011;1014;51.960;8.542;2023-02-15T12:03:21;37.00;;;33.03;;
2019;SDS011;1014;51.960;8.542;2023-02-15T12:05:49;38.00;;;34.23;;
2019;SDS011;1014;51.960;8.542;2023-02-15T12:08:19;37.40;;;33.40;;
2019;SDS011;1014;51.960;8.542;2023-02-15T12:10:51;41.00;;;37.07;;
2019;SDS011;1014;51.960;8.542;2023-02-15T12:13:20;38.30;;;34.30;;
2019;SDS011;1014;51.960;8.542;2023-02-15T12:15:50;37.07;;;33.47;;
2019;SDS011;1014;51.960;8.542;2023-02-15T12:18:19;36.77;;;33.37;;
2019;SDS011;1014;51.960;8.542;2023-02-15T12:20:46;38.83;;;35.23;;
2019;SDS011;1014;51.960;8.542;2023-02-15T12:23:14;38.40;;;35.10;;
2019;SDS011;1014;51.960;8.542;2023-02-15T12:25:41;37.13;;;33.63;;
2019;SDS011;1014;51.960;8.542;2023-02-15T12:28:18;39.27;;;35.87;;
2019;SDS011;1014;51.960;8.542;2023-02-15T12:30:49;36.77;;;33.13;;
2019;SDS011;1014;51.960;8.542;2023-02-15T12:33:21;39.73;;;35.80;;
2019;SDS011;1014;51.960;8.542;2023-02-15T12:35:54;38.20;;;34.50;;
2019;SDS011;1014;51.960;8.542;2023-02-15T12:38:23;38.83;;;35.20;;
2019;SDS011;1014;51.960;8.542;2023-02-15T12:40:57;38.30;;;34.63;;
2019;SDS011;1014;51.960;8.542;2023-02-15T12:43:25;38.03;;;34.23;;
2019;SDS011;1014;51.960;8.542;2023-02-15T12:45:53;38.17;;;34.40;;
2019;SDS011;1014;51.960;8.542;2023-02-15T12:48:39;36.40;;;33.00;;
2019;SDS011;1014;51.960;8.542;2023-02-15T12:51:07;36.70;;;33.30;;
2019;SDS011;1014;51.960;8.542;2023-02-15T12:53:35;39.00;;;34.80;;
2019;SDS011;1014;51.960;8.542;2023-02-15T12:56:03;39.90;;;35.70;;
2019;SDS011;1014;51.960;8.542;2023-02-15T12:58:30;38.27;;;34.77;;
2019;SDS011;1014;51.960;8.542;2023-02-15T13:01:10;37.87;;;33.90;;
2019;SDS011;1014;51.960;8.542;2023-02-15T13:03:38;37.97;;;34.27;;
2019;SDS011;1014;51.960;8.542;2023-02-15T13:06:06;38.33;;;34.43;;
2019;SDS011;1014;51.960;8.542;2023-02-15T13:08:34;37.50;;;33.93;;
2019;SDS011;1014;51.960;8.542;2023-02-15T13:11:03;36.90;;;33.53;;
2019;SDS011;1014;51.960;8.542;2023-02-15T13:13:30;36.50;;;33.00;;
2019;SDS011;1014;51.960;8.542;2023-02-15T13:15:58;39.40;;;35.50;;
2019;SDS011;1014;51.960;8.542;2023-02-15T13:18:30;37.93;;;34.40;;
2019;SDS011;1014;51.960;8.542;2023-02-15T13:20:59;39.00;;;35.10;;
2019;SDS011;1014;51.960;8.542;2023-02-15T13:23:31;38.30;;;34.63;;
2019;SDS011;1014;51.960;8.542;2023-02-15T13:25:59;37.90;;;34.20;;
2019;SDS011;1014;51.960;8.542;2023-02-15T13:28:32;38.57;;;34.83;;
2019;SDS011;1014;51.960;8.542;2023-02-15T13:31:01;37.53;;;33.73;;
2019;SDS011;1014;51.960;8.542;2023-02-15T13:33:30;37.27;;;33.87;;
2019;SDS011;1014;51.960;8.542;2023-02-15T13:36:00;39.07;;;35.20;;
2019;SDS011;1014;51.960;8.542;2023-02-15T13:41:14;37.87;;;34.13;;
2019;SDS011;1014;51.960;8.542;2023-02-15T13:43:46;36.73;;;33.03;;
2019;SDS011;1014;51.960;8.542;2023-02-15T13:46:17;34.63;;;31.47;;
2019;SDS011;1014;51.960;8.542;2023-02-15T13:48:51;37.67;;;33.97;;
2019;SDS011;1014;51.960;8.542;2023-02-15T13:51:21;38.57;;;34.83;;
2019;SDS011;1014;51.960;8.542;2023-02-15T13:53:54;39.27;;;35.27;;
2019;SDS011;1014;51.960;8.542;2023-02-15T13:56:26;37.03;;;33.33;;
2019;SDS011;1014;51.960;8.542;2023-02-15T13:59:01;36.53;;;32.90;;
2019;SDS011;1014;51.960;8.542;2023-02-15T14:01:34;37.73;;;34.13;;
2019;SDS011;1014;51.960;8.542;2023-02-15T14:04:20;35.73;;;32.40;;
2019;SDS011;1014;51.960;8.542;2023-02-15T14:07:02;36.30;;;32.40;;
2019;SDS011;1014;51.960;8.542;2023-02-15T14:09:37;37.50;;;33.60;;
2019;SDS011;1014;51.960;8.542;2023-02-15T14:12:12;34.43;;;31.33;;
2019;SDS011;1014;51.960;8.542;2023-02-15T14:14:50;35.00;;;31.70;;
2019;SDS011;1014;51.960;8.542;2023-02-15T14:17:23;35.63;;;32.13;;
2019;SDS011;1014;51.960;8.542;2023-02-15T14:19:54;37.33;;;33.70;;
2019;SDS011;1014;51.960;8.542;2023-02-15T14:22:26;36.63;;;32.90;;
2019;SDS011;1014;51.960;8.542;2023-02-15T14:24:59;36.30;;;32.87;;
2019;SDS011;1014;51.960;8.542;2023-02-15T14:27:37;35.37;;;31.73;;
2019;SDS011;1014;51.960;8.542;2023-02-15T14:30:12;35.47;;;32.03;;
2019;SDS011;1014;51.960;8.542;2023-02-15T14:32:42;35.20;;;31.90;;
2019;SDS011;1014;51.960;8.542;2023-02-15T14:35:14;36.43;;;32.73;;
2019;SDS011;1014;51.960;8.542;2023-02-15T14:37:42;35.40;;;32.07;;
2019;SDS011;1014;51.960;8.542;2023-02-15T14:40:10;35.53;;;32.13;;
2019;SDS011;1014;51.960;8.542;2023-02-15T14:43:01;39.17;;;35.37;;
2019;SDS011;1014;51.960;8.542;2023-02-15T14:45:34;36.47;;;33.17;;
2019;SDS011;1014;51.960;8.542;2023-02-15T14:48:09;38.77;;;34.77;;
2019;SDS011;1014;51.960;8.542;2023-02-15T14:50:40;35.47;;;32.37;;
2019;SDS011;1014;51.960;8.542;2023-02-15T14:53:22;35.27;;;31.80;;
2019;SDS011;1014;51.960;8.542;2023-02-15T14:56:04;34.77;;;31.37;;
2019;SDS011;1014;51.960;8.542;2023-02-15T14:58:32;34.33;;;30.83;;
2019;SDS011;1014;51.960;8.542;2023-02-15T15:01:03;36.63;;;32.93;;
2019;SDS011;1014;51.960;8.542;2023-02-15T15:03:31;36.50;;;32.70;;
2019;SDS011;1014;51.960;8.542;2023-02-15T15:06:00;37.23;;;33.63;;
2019;SDS011;1014;51.960;8.542;2023-02-15T15:08:29;36.80;;;33.10;;
2019;SDS011;1014;51.960;8.542;2023-02-15T15:11:13;35.00;;;31.60;;
2019;SDS011;1014;51.960;8.542;2023-02-15T15:14:00;36.57;;;33.10;;
2019;SDS011;1014;51.960;8.542;2023-02-15T15:16:34;34.97;;;31.47;;
2019;SDS011;1014;51.960;8.542;2023-02-15T15:19:14;35.63;;;32.50;;